Time;durP1;ratioP1;P1;durP2;ratioP2;P2;SDS_P1;SDS_P2;PMS_P1;PMS_P2;Temp;Humidity;BMP_temperature;BMP_pressure;BME280_temperature;BME280_humidity;BME280_pressure;Samples;Min_cycle;Max_cycle;Signal;HPM_P1;HPM_P2
2023/09/22 00:00:00;;;;;;;17.35;9.40;;;13.90;99.90;;;;;;4969101;28;20539;-77
2023/09/22 00:02:26;;;;;;;21.70;10.97;;;;;;;;;;4992774;28;20460;-77
2023/09/22 00:04:52;;;;;;;21.88;11.07;;;13.80;99.90;;;;;;5032218;28;20432;-77
2023/09/22 00:07:18;;;;;;;24.03;12.10;;;13.70;99.90;;;;;;4975982;28;20417;-77
2023/09/22 00:09:44;;;;;;;24.35;12.43;;;13.70;99.90;;;;;;4988030;28;20426;-77
2023/09/22 00:12:10;;;;;;;27.45;13.30;;;13.80;99.90;;;;;;4983810;28;20419;-77
2023/09/22 00:14:36;;;;;;;30.83;13.82;;;13.70;99.90;;;;;;4979076;28;20417;-76
2023/09/22 00:17:02;;;;;;;30.40;14.10;;;13.80;99.90;;;;;;5024827;28;20794;-76
2023/09/22 00:19:28;;;;;;;36.67;15.50;;;13.80;99.90;;;;;;5017128;28;20431;-77
2023/09/22 00:21:57;;;;;;;36.53;16.20;;;13.90;99.90;;;;;;5004686;28;20429;-76
2023/09/22 00:24:23;;;;;;;37.60;16.50;;;13.70;99.90;;;;;;5009779;28;20429;-77
2023/09/22 00:26:48;;;;;;;37.63;17.47;;;13.80;99.90;;;;;;4970597;28;20422;-76
2023/09/22 00:29:14;;;;;;;39.42;17.00;;;13.80;99.90;;;;;;4960091;28;20506;-77
2023/09/22 00:31:40;;;;;;;36.97;17.48;;;13.80;99.90;;;;;;4980354;28;20460;-76
2023/09/22 00:34:06;;;;;;;39.67;17.48;;;13.90;99.90;;;;;;4979343;28;20466;-76
2023/09/22 00:36:33;;;;;;;42.22;18.95;;;13.80;99.90;;;;;;4971645;28;20436;-77
2023/09/22 00:38:58;;;;;;;42.90;18.67;;;14.10;99.90;;;;;;4989380;28;20482;-77
2023/09/22 00:41:24;;;;;;;42.60;18.83;;;13.90;99.90;;;;;;5003528;28;20413;-77
2023/09/22 00:43:50;;;;;;;39.73;18.67;;;14.00;99.90;;;;;;4990973;28;20971;-77
2023/09/22 00:46:21;;;;;;;43.53;19.65;;;13.80;99.90;;;;;;5007615;28;20484;-77
2023/09/22 00:48:48;;;;;;;41.55;19.30;;;14.10;99.90;;;;;;5003010;28;20982;-77
2023/09/22 00:51:15;;;;;;;41.40;19.13;;;14.20;99.90;;;;;;5009062;28;20409;-77
2023/09/22 00:53:41;;;;;;;41.50;19.38;;;14.10;99.90;;;;;;5003258;28;20925;-77
2023/09/22 00:56:08;;;;;;;43.17;20.00;;;;;;;;;;4967874;28;20431;-77
2023/09/22 00:58:34;;;;;;;43.38;20.15;;;13.90;99.90;;;;;;4993159;28;20432;-77
2023/09/22 01:00:59;;;;;;;47.30;20.85;;;13.80;99.90;;;;;;4997892;28;20410;-77
2023/09/22 01:03:25;;;;;;;49.63;20.92;;;13.90;99.90;;;;;;4985463;28;20410;-77
2023/09/22 01:05:51;;;;;;;42.88;21.48;;;13.80;99.90;;;;;;4984125;28;20415;-77
2023/09/22 01:08:17;;;;;;;45.47;21.93;;;13.80;99.90;;;;;;4985218;28;20865;-77
2023/09/22 01:10:43;;;;;;;46.37;22.73;;;13.80;99.90;;;;;;4981695;28;20518;-77
2023/09/22 01:13:09;;;;;;;48.53;23.43;;;13.70;99.90;;;;;;4976822;28;20414;-77
2023/09/22 01:15:42;;;;;;;54.17;24.70;;;13.80;99.90;;;;;;4979213;28;20415;-76
2023/09/22 01:18:18;;;;;;;47.25;24.55;;;14.20;99.90;;;;;;4998789;28;20409;-77
2023/09/22 01:20:44;;;;;;;49.95;24.38;;;13.70;99.90;;;;;;4994681;28;20415;-77
2023/09/22 01:23:12;;;;;;;54.40;25.83;;;13.80;99.90;;;;;;4963372;28;20425;-77
2023/09/22 01:25:44;;;;;;;56.90;26.13;;;13.90;99.90;;;;;;4997290;28;20788;-77
2023/09/22 01:28:10;;;;;;;52.35;25.65;;;14.00;99.90;;;;;;5000301;28;20755;-78
2023/09/22 01:30:38;;;;;;;52.35;25.85;;;13.60;99.90;;;;;;4987759;28;21050;-78
2023/09/22 01:33:04;;;;;;;51.85;25.52;;;13.80;99.90;;;;;;5054137;28;20400;-78
2023/09/22 01:35:35;;;;;;;51.22;25.35;;;13.90;99.90;;;;;;4999866;28;20404;-77
2023/09/22 01:38:12;;;;;;;57.78;27.33;;;13.90;99.90;;;;;;5014222;28;20992;-77
2023/09/22 01:40:39;;;;;;;55.70;27.42;;;13.90;99.90;;;;;;4991893;28;20432;-77
2023/09/22 01:43:05;;;;;;;57.97;28.10;;;14.00;99.90;;;;;;5007933;28;20440;-77
2023/09/22 01:45:30;;;;;;;57.03;27.90;;;13.90;99.90;;;;;;5036758;28;20435;-77
2023/09/22 01:47:56;;;;;;;61.83;29.00;;;13.90;99.90;;;;;;4981788;28;20401;-77
2023/09/22 01:50:22;;;;;;;58.40;28.40;;;13.90;99.90;;;;;;5043594;28;20419;-77
2023/09/22 01:52:47;;;;;;;59.87;28.40;;;14.10;99.90;;;;;;4978249;28;20736;-77
2023/09/22 01:55:13;;;;;;;56.67;28.38;;;14.00;99.90;;;;;;5064296;28;20417;-77
2023/09/22 01:57:39;;;;;;;60.17;29.85;;;14.00;99.90;;;;;;4980153;28;20426;-77
2023/09/22 02:00:06;;;;;;;55.10;28.43;;;14.00;99.90;;;;;;4974902;28;20850;-77
2023/09/22 02:02:33;;;;;;;50.67;28.48;;;13.90;99.90;;;;;;4999522;28;20403;-77
2023/09/22 02:05:00;;;;;;;54.58;27.80;;;13.80;99.90;;;;;;4956335;28;20978;-77
2023/09/22 02:07:26;;;;;;;53.05;28.17;;;14.00;99.90;;;;;;5000965;28;20477;-77
2023/09/22 02:09:52;;;;;;;50.03;28.10;;;14.20;99.90;;;;;;4984338;28;20483;-77
2023/09/22 02:12:17;;;;;;;52.67;28.53;;;14.00;99.90;;;;;;5001560;28;20417;-77
2023/09/22 02:14:43;;;;;;;57.30;29.42;;;14.00;99.90;;;;;;5002609;28;20959;-77
2023/09/22 02:17:09;;;;;;;55.45;27.88;;;14.10;99.90;;;;;;4995335;28;20501;-77
2023/09/22 02:19:35;;;;;;;53.63;27.97;;;14.10;99.90;;;;;;5035155;28;20427;-77
2023/09/22 02:22:01;;;;;;;52.88;27.65;;;13.70;99.90;;;;;;4977167;28;20411;-77
2023/09/22 02:24:27;;;;;;;51.47;27.92;;;14.60;99.90;;;;;;5008758;28;20399;-78
2023/09/22 02:26:53;;;;;;;50.63;28.07;;;14.20;99.90;;;;;;4994488;28;20483;-78
2023/09/22 02:29:18;;;;;;;50.42;28.00;;;13.90;99.90;;;;;;4995834;28;20414;-78
2023/09/22 02:31:44;;;;;;;52.03;27.80;;;14.20;99.90;;;;;;4998626;28;21514;-78
2023/09/22 02:34:10;;;;;;;50.08;27.52;;;14.10;99.90;;;;;;4980545;28;20419;-78
2023/09/22 02:36:36;;;;;;;54.22;27.15;;;14.00;99.90;;;;;;5002321;28;20491;-78
2023/09/22 02:39:03;;;;;;;50.90;27.25;;;14.10;99.90;;;;;;4985424;28;20442;-78
2023/09/22 02:41:28;;;;;;;47.05;26.05;;;13.80;99.90;;;;;;4981858;28;20433;-77
2023/09/22 02:43:54;;;;;;;48.73;25.93;;;13.80;99.90;;;;;;4991807;28;20429;-77
2023/09/22 02:46:20;;;;;;;53.33;26.90;;;13.80;99.90;;;;;;4986012;28;20424;-77
2023/09/22 02:48:47;;;;;;;46.35;25.90;;;13.70;99.90;;;;;;5051882;28;20432;-77
2023/09/22 02:51:12;;;;;;;46.50;24.83;;;13.60;99.90;;;;;;4975215;28;20560;-77
2023/09/22 02:53:38;;;;;;;48.35;25.05;;;13.70;99.90;;;;;;4975812;28;21039;-77
2023/09/22 02:56:05;;;;;;;49.97;25.20;;;13.50;99.90;;;;;;5005667;28;20780;-77
2023/09/22 02:58:31;;;;;;;47.13;24.77;;;13.60;99.90;;;;;;5001203;28;20426;-77
2023/09/22 03:00:57;;;;;;;51.65;25.40;;;13.60;99.90;;;;;;4992266;28;20419;-77
2023/09/22 03:03:22;;;;;;;53.88;25.60;;;13.60;99.90;;;;;;5006442;28;20416;-77
2023/09/22 03:05:48;;;;;;;49.33;24.47;;;13.50;99.90;;;;;;5019873;28;20501;-77
2023/09/22 03:08:14;;;;;;;51.77;24.80;;;13.70;99.90;;;;;;4980259;28;20914;-77
2023/09/22 03:10:39;;;;;;;53.72;24.52;;;13.40;99.90;;;;;;4998522;28;20922;-77
2023/09/22 03:13:05;;;;;;;53.35;25.65;;;13.40;99.90;;;;;;4982540;28;20831;-77
2023/09/22 03:15:31;;;;;;;56.05;24.95;;;13.40;99.90;;;;;;4992798;28;20428;-77
2023/09/22 03:17:57;;;;;;;52.93;24.43;;;13.40;99.90;;;;;;5021742;28;20488;-77
2023/09/22 03:20:22;;;;;;;54.00;24.27;;;13.30;99.90;;;;;;5020117;28;20446;-76
2023/09/22 03:22:48;;;;;;;55.20;24.30;;;13.20;99.90;;;;;;4998629;28;20872;-77
2023/09/22 03:25:15;;;;;;;51.60;22.93;;;;;;;;;;5005073;28;20407;-77
2023/09/22 03:27:41;;;;;;;50.83;22.70;;;13.30;99.90;;;;;;5015369;28;20417;-77
2023/09/22 03:30:09;;;;;;;47.03;21.98;;;13.30;99.90;;;;;;5016495;28;20427;-77
2023/09/22 03:32:35;;;;;;;50.08;21.42;;;13.40;99.90;;;;;;5003208;28;20446;-76
2023/09/22 03:35:06;;;;;;;49.35;21.20;;;13.50;99.90;;;;;;4984972;28;20914;-77
2023/09/22 03:37:32;;;;;;;46.92;21.25;;;13.50;99.90;;;;;;4976799;28;20430;-77
2023/09/22 03:39:58;;;;;;;49.40;20.77;;;13.20;99.90;;;;;;4989004;28;20428;-77
2023/09/22 03:42:25;;;;;;;49.30;20.42;;;13.30;99.90;;;;;;4986490;28;20982;-77
2023/09/22 03:44:50;;;;;;;46.50;20.05;;;13.30;99.90;;;;;;4971754;28;20410;-77
2023/09/22 03:47:16;;;;;;;43.75;19.73;;;13.10;99.90;;;;;;4997525;28;20419;-77
2023/09/22 03:49:42;;;;;;;50.47;21.13;;;13.30;99.90;;;;;;4996198;28;20422;-77
2023/09/22 03:52:08;;;;;;;47.88;19.92;;;13.10;99.90;;;;;;4978920;28;20435;-77
2023/09/22 03:54:34;;;;;;;45.50;19.90;;;13.20;99.90;;;;;;4978477;28;20426;-77
2023/09/22 03:57:00;;;;;;;48.63;19.73;;;13.30;99.90;;;;;;4993067;28;20429;-76
2023/09/22 03:59:26;;;;;;;51.58;20.90;;;13.00;99.90;;;;;;4985078;28;20481;-77
2023/09/22 04:01:52;;;;;;;48.65;19.98;;;13.20;99.90;;;;;;4980092;28;20507;-77
2023/09/22 04:04:17;;;;;;;53.33;20.55;;;13.40;99.90;;;;;;4983984;28;20414;-76
2023/09/22 04:06:44;;;;;;;52.53;20.25;;;13.30;99.90;;;;;;4997141;28;20413;-77
2023/09/22 04:09:10;;;;;;;50.03;20.80;;;13.30;99.90;;;;;;5039622;28;20396;-76
2023/09/22 04:11:36;;;;;;;51.80;20.95;;;13.20;99.90;;;;;;4989081;28;20437;-77
2023/09/22 04:14:03;;;;;;;47.65;20.83;;;;;;;;;;4976730;28;20436;-77
2023/09/22 04:16:29;;;;;;;49.80;20.75;;;13.10;99.90;;;;;;5003298;28;20426;-77
2023/09/22 04:18:55;;;;;;;47.63;21.35;;;13.10;99.90;;;;;;5013674;28;20422;-76
2023/09/22 04:21:23;;;;;;;48.97;22.08;;;13.40;99.90;;;;;;5005322;28;20436;-76
2023/09/22 04:23:59;;;;;;;48.47;22.20;;;13.40;99.90;;;;;;4995148;28;20437;-75
2023/09/22 04:26:29;;;;;;;47.03;21.98;;;13.30;99.90;;;;;;5004582;28;20489;-76
2023/09/22 04:28:59;;;;;;;49.10;23.00;;;13.40;99.90;;;;;;5028424;28;20410;-76
2023/09/22 04:31:26;;;;;;;50.00;22.98;;;13.40;99.90;;;;;;5001185;28;20965;-77
2023/09/22 04:33:52;;;;;;;51.75;23.83;;;13.40;99.90;;;;;;5002247;28;20418;-75
2023/09/22 04:36:22;;;;;;;50.40;24.60;;;13.40;99.90;;;;;;4974552;28;20422;-75
2023/09/22 04:38:50;;;;;;;48.88;23.95;;;13.60;99.90;;;;;;4999295;28;20509;-75
2023/09/22 04:41:19;;;;;;;49.22;23.90;;;13.50;99.90;;;;;;5001969;28;20500;-75
2023/09/22 04:43:48;;;;;;;47.83;24.33;;;13.50;99.90;;;;;;5051355;28;20412;-75
2023/09/22 04:46:19;;;;;;;45.17;23.73;;;13.40;99.90;;;;;;5002161;28;21058;-75
2023/09/22 04:48:46;;;;;;;43.00;23.95;;;13.30;99.90;;;;;;4998657;28;20430;-75
2023/09/22 04:51:14;;;;;;;42.13;22.80;;;13.40;99.90;;;;;;4967803;28;20768;-76
2023/09/22 04:53:41;;;;;;;41.60;23.52;;;13.20;99.90;;;;;;4985968;28;20458;-76
2023/09/22 04:56:07;;;;;;;44.33;24.13;;;13.10;99.90;;;;;;5003151;28;20460;-75
2023/09/22 04:58:33;;;;;;;46.03;24.52;;;12.90;99.90;;;;;;5032664;28;20481;-76
2023/09/22 05:01:01;;;;;;;44.20;23.45;;;13.20;99.90;;;;;;5013899;28;20409;-75
2023/09/22 05:03:30;;;;;;;47.65;24.20;;;12.90;99.90;;;;;;5031860;28;20522;-75
2023/09/22 05:06:08;;;;;;;43.95;24.33;;;;;;;;;;5009070;28;20421;-76
2023/09/22 05:08:36;;;;;;;48.28;24.63;;;13.00;99.90;;;;;;5019598;28;20418;-76
2023/09/22 05:11:07;;;;;;;48.22;24.92;;;12.90;99.90;;;;;;4979592;28;20429;-75
2023/09/22 05:13:34;;;;;;;50.45;25.38;;;12.80;99.90;;;;;;5001591;28;20511;-75
2023/09/22 05:16:06;;;;;;;49.23;24.47;;;12.90;99.90;;;;;;5013015;28;20450;-76
2023/09/22 05:18:32;;;;;;;52.83;26.38;;;12.80;99.90;;;;;;5048343;28;20439;-76
2023/09/22 05:21:02;;;;;;;54.90;26.73;;;12.80;99.90;;;;;;5003692;28;20442;-76
2023/09/22 05:23:34;;;;;;;53.05;26.10;;;;;;;;;;5001052;28;20436;-76
2023/09/22 05:26:06;;;;;;;51.40;26.33;;;12.90;99.90;;;;;;5001520;28;20416;-76
2023/09/22 05:28:32;;;;;;;54.90;27.07;;;;;;;;;;5001158;28;20550;-75
2023/09/22 05:30:59;;;;;;;54.63;27.33;;;12.90;99.90;;;;;;4975886;28;20726;-76
2023/09/22 05:33:24;;;;;;;57.45;28.02;;;12.90;99.90;;;;;;5019019;28;20426;-76
2023/09/22 05:35:51;;;;;;;56.55;28.38;;;;;;;;;;4999258;28;20808;-76
2023/09/22 05:38:17;;;;;;;53.57;26.33;;;;;;;;;;4989946;28;20506;-76
2023/09/22 05:40:43;;;;;;;56.08;27.98;;;12.70;99.90;;;;;;4981196;28;20433;-76
2023/09/22 05:43:13;;;;;;;56.92;28.00;;;12.60;99.90;;;;;;4960941;28;20426;-76
2023/09/22 05:45:40;;;;;;;55.90;28.30;;;12.90;99.90;;;;;;5023467;28;20482;-76
2023/09/22 05:48:10;;;;;;;63.70;28.83;;;;;;;;;;5000397;28;20412;-76
2023/09/22 05:50:36;;;;;;;66.28;28.35;;;12.70;99.90;;;;;;4992039;28;20440;-75
2023/09/22 05:53:05;;;;;;;61.92;28.38;;;12.80;99.90;;;;;;4995215;28;20503;-75
2023/09/22 05:55:33;;;;;;;60.13;28.83;;;12.70;99.90;;;;;;4983077;28;20753;-75
2023/09/22 05:57:59;;;;;;;63.15;28.35;;;13.00;99.90;;;;;;4991159;28;20428;-76
2023/09/22 06:00:28;;;;;;;61.65;28.70;;;12.50;99.90;;;;;;4992625;28;20776;-75
2023/09/22 06:02:54;;;;;;;59.40;29.98;;;12.80;99.90;;;;;;5014073;28;20457;-75
2023/09/22 06:05:22;;;;;;;61.00;29.63;;;;;;;;;;5043412;28;20410;-75
2023/09/22 06:07:49;;;;;;;59.33;28.73;;;12.60;99.90;;;;;;4979011;28;20410;-75
2023/09/22 06:10:15;;;;;;;57.43;27.47;;;13.00;99.90;;;;;;4994417;28;20461;-75
2023/09/22 06:12:41;;;;;;;56.40;27.42;;;12.50;99.90;;;;;;5000458;28;20485;-75
2023/09/22 06:15:08;;;;;;;57.67;27.88;;;12.90;99.90;;;;;;5000313;28;20422;-75
2023/09/22 06:17:35;;;;;;;56.47;28.10;;;;;;;;;;4992705;28;20432;-75
2023/09/22 06:20:08;;;;;;;58.93;28.17;;;;;;;;;;4976516;28;20445;-75
2023/09/22 06:22:34;;;;;;;60.37;27.80;;;13.00;99.90;;;;;;4993795;28;20421;-75
2023/09/22 06:25:00;;;;;;;55.97;27.50;;;12.90;99.90;;;;;;4982289;28;20417;-76
2023/09/22 06:27:26;;;;;;;57.05;28.27;;;;;;;;;;4999789;28;20868;-75
2023/09/22 06:29:52;;;;;;;55.50;28.10;;;12.80;99.90;;;;;;4999033;28;20967;-75
2023/09/22 06:32:18;;;;;;;53.97;27.48;;;12.80;99.90;;;;;;4979623;28;20501;-75
2023/09/22 06:34:43;;;;;;;51.20;26.50;;;12.80;99.90;;;;;;4994404;28;20504;-75
2023/09/22 06:37:09;;;;;;;54.72;26.05;;;12.70;99.90;;;;;;4993167;28;20788;-75
2023/09/22 06:39:35;;;;;;;50.70;25.63;;;12.70;99.90;;;;;;4979407;28;20438;-75
2023/09/22 06:42:01;;;;;;;50.80;25.92;;;;;;;;;;4995178;28;20450;-76
2023/09/22 06:44:29;;;;;;;46.10;24.00;;;12.90;99.90;;;;;;4977115;28;20426;-75
2023/09/22 06:46:55;;;;;;;48.28;24.50;;;13.00;99.90;;;;;;4996964;28;20778;-75
2023/09/22 06:49:24;;;;;;;45.57;23.30;;;12.90;99.90;;;;;;4998834;28;20433;-75
2023/09/22 06:51:50;;;;;;;40.13;21.83;;;13.00;99.90;;;;;;4971418;28;20426;-76
2023/09/22 06:54:16;;;;;;;44.23;22.40;;;;;;;;;;4989834;28;20918;-76
2023/09/22 06:56:45;;;;;;;37.00;20.60;;;13.00;99.90;;;;;;4995721;28;20432;-76
2023/09/22 06:59:12;;;;;;;39.90;21.13;;;13.10;99.90;;;;;;4980908;28;20433;-77
2023/09/22 07:01:39;;;;;;;33.45;19.67;;;13.20;99.90;;;;;;4993467;28;20433;-77
2023/09/22 07:04:09;;;;;;;38.92;20.02;;;13.20;99.90;;;;;;4985709;28;20889;-73
2023/09/22 07:06:36;;;;;;;37.85;20.15;;;13.10;99.90;;;;;;4983239;28;20433;-74
2023/09/22 07:09:02;;;;;;;33.70;19.45;;;13.10;99.90;;;;;;5000994;28;20412;-73
2023/09/22 07:11:28;;;;;;;32.47;18.35;;;13.00;99.90;;;;;;4976212;28;20435;-73
2023/09/22 07:13:54;;;;;;;30.17;18.90;;;13.30;99.90;;;;;;4976744;28;20433;-72
2023/09/22 07:16:20;;;;;;;30.85;18.48;;;13.20;99.90;;;;;;4995220;28;21747;-73
2023/09/22 07:18:46;;;;;;;36.10;19.23;;;13.30;99.90;;;;;;4975862;28;20418;-72
2023/09/22 07:21:12;;;;;;;34.70;18.63;;;13.30;99.90;;;;;;4978794;28;20421;-72
2023/09/22 07:23:38;;;;;;;34.17;18.60;;;13.10;99.90;;;;;;4971144;28;20803;-71
2023/09/22 07:26:11;;;;;;;32.05;18.13;;;13.30;99.90;;;;;;4995096;28;20473;-72
2023/09/22 07:28:37;;;;;;;31.70;17.73;;;13.20;99.90;;;;;;4991088;28;20439;-72
2023/09/22 07:31:18;;;;;;;31.55;17.58;;;13.30;99.90;;;;;;4975588;28;20516;-73
2023/09/22 07:33:44;;;;;;;29.23;17.43;;;13.40;99.90;;;;;;4999745;28;20413;-72
2023/09/22 07:36:11;;;;;;;31.20;18.17;;;13.40;99.90;;;;;;4969994;28;20429;-72
2023/09/22 07:38:37;;;;;;;29.02;17.02;;;13.10;99.90;;;;;;4999131;28;20397;-72
2023/09/22 07:41:03;;;;;;;26.02;15.73;;;13.20;99.90;;;;;;4958184;28;20945;-72
2023/09/22 07:43:29;;;;;;;25.90;15.90;;;13.40;99.90;;;;;;4996821;28;20424;-72
2023/09/22 07:46:00;;;;;;;26.13;15.33;;;13.30;99.90;;;;;;4995937;28;20421;-73
2023/09/22 07:48:27;;;;;;;25.30;14.75;;;13.30;99.90;;;;;;4985064;28;20410;-73
2023/09/22 07:50:53;;;;;;;28.20;15.73;;;13.30;99.90;;;;;;4992778;28;20428;-73
2023/09/22 07:53:20;;;;;;;25.13;15.40;;;13.50;99.90;;;;;;4987120;28;20405;-73
2023/09/22 07:55:47;;;;;;;24.63;15.48;;;13.40;99.90;;;;;;4989964;28;20437;-72
2023/09/22 07:58:13;;;;;;;23.45;15.13;;;13.70;99.90;;;;;;4966890;28;20483;-73
2023/09/22 08:00:44;;;;;;;22.35;15.13;;;13.80;99.90;;;;;;4993973;28;20411;-73
2023/09/22 08:03:10;;;;;;;20.38;14.13;;;13.90;99.90;;;;;;4985891;28;20425;-73
2023/09/22 08:05:36;;;;;;;21.60;13.90;;;13.90;99.90;;;;;;4985775;28;20423;-73
2023/09/22 08:08:04;;;;;;;20.83;14.25;;;13.70;99.90;;;;;;4978992;28;20849;-73
2023/09/22 08:10:30;;;;;;;22.23;14.40;;;13.90;99.90;;;;;;5006332;28;20515;-75
2023/09/22 08:12:55;;;;;;;21.58;14.25;;;13.70;99.90;;;;;;4995125;28;20955;-74
2023/09/22 08:15:21;;;;;;;19.90;13.63;;;13.80;99.90;;;;;;4969444;28;20420;-74
2023/09/22 08:17:49;;;;;;;21.13;14.10;;;13.70;99.90;;;;;;4971836;28;20434;-74
2023/09/22 08:20:16;;;;;;;21.42;14.65;;;13.80;99.90;;;;;;4996980;28;20451;-73
2023/09/22 08:22:42;;;;;;;20.48;14.20;;;13.50;99.90;;;;;;5000225;28;20521;-74
2023/09/22 08:25:10;;;;;;;19.52;13.90;;;13.80;99.90;;;;;;4984906;28;20417;-74
2023/09/22 08:27:36;;;;;;;19.42;13.57;;;13.80;99.90;;;;;;4963965;28;20456;-73
2023/09/22 08:30:11;;;;;;;18.50;12.13;;;13.80;99.90;;;;;;4976750;28;20429;-74
2023/09/22 08:32:40;;;;;;;14.73;11.30;;;;;;;;;;4983343;28;20405;-74
2023/09/22 08:35:11;;;;;;;16.13;11.43;;;14.00;99.90;;;;;;4995916;28;20428;-75
2023/09/22 08:37:40;;;;;;;15.70;11.05;;;14.00;99.90;;;;;;4995171;28;20427;-73
2023/09/22 08:40:11;;;;;;;13.52;10.30;;;14.30;99.90;;;;;;4977480;28;20431;-74
2023/09/22 08:42:37;;;;;;;13.82;9.70;;;14.50;99.90;;;;;;5002347;28;20469;-73
2023/09/22 08:45:08;;;;;;;12.73;9.45;;;14.40;99.90;;;;;;4994849;28;20419;-73
2023/09/22 08:47:39;;;;;;;12.50;9.73;;;14.30;99.90;;;;;;4991427;28;20928;-74
2023/09/22 08:50:26;;;;;;;14.00;9.97;;;14.50;99.90;;;;;;4977689;28;20429;-73
2023/09/22 08:52:52;;;;;;;14.43;9.25;;;14.50;99.90;;;;;;4997831;28;20418;-73
2023/09/22 08:55:19;;;;;;;15.52;8.48;;;14.60;99.90;;;;;;4995105;28;20478;-74
2023/09/22 08:57:46;;;;;;;13.40;8.23;;;14.60;99.90;;;;;;4996003;28;20425;-72
2023/09/22 09:00:18;;;;;;;11.73;8.10;;;14.90;99.90;;;;;;4999612;28;20978;-73
2023/09/22 09:02:46;;;;;;;9.93;7.45;;;14.60;99.90;;;;;;4983553;28;20428;-73
2023/09/22 09:05:27;;;;;;;9.73;7.55;;;14.50;99.90;;;;;;4989194;28;20410;-72
2023/09/22 09:07:53;;;;;;;10.20;7.07;;;14.60;99.90;;;;;;5003905;28;20451;-71
2023/09/22 09:10:29;;;;;;;10.02;6.25;;;14.70;99.90;;;;;;4999346;28;20449;-71
2023/09/22 09:12:56;;;;;;;7.72;5.65;;;15.00;99.90;;;;;;4994436;28;20450;-72
2023/09/22 09:15:27;;;;;;;8.55;5.53;;;15.20;99.90;;;;;;4979889;28;20916;-72
2023/09/22 09:18:11;;;;;;;6.60;5.30;;;15.30;99.90;;;;;;4982007;28;20429;-72
2023/09/22 09:20:41;;;;;;;8.50;5.43;;;15.60;99.90;;;;;;5002937;28;20474;-72
2023/09/22 09:23:21;;;;;;;7.45;4.53;;;15.90;99.90;;;;;;4985218;28;20849;-72
2023/09/22 09:25:49;;;;;;;6.45;3.70;;;16.10;99.90;;;;;;5058024;28;20406;-71
2023/09/22 09:28:17;;;;;;;5.53;3.45;;;16.00;99.90;;;;;;5002145;28;20421;-72
2023/09/22 09:30:54;;;;;;;5.40;3.40;;;16.30;99.90;;;;;;4997683;28;20472;-72
2023/09/22 09:33:24;;;;;;;5.85;3.25;;;16.60;99.90;;;;;;5002921;28;20486;-72
2023/09/22 09:35:51;;;;;;;4.88;3.30;;;16.20;99.90;;;;;;4997391;28;20467;-72
2023/09/22 09:38:18;;;;;;;6.10;3.22;;;16.40;99.90;;;;;;4998634;28;20429;-72
2023/09/22 09:40:44;;;;;;;5.83;3.53;;;16.00;99.90;;;;;;5002400;28;20425;-72
2023/09/22 09:43:14;;;;;;;5.30;2.90;;;15.90;99.90;;;;;;5046611;28;20981;-72
2023/09/22 09:45:47;;;;;;;6.38;2.83;;;15.90;99.90;;;;;;4999820;28;20498;-72
2023/09/22 09:48:16;;;;;;;5.25;2.63;;;16.10;99.90;;;;;;5019275;28;20399;-72
2023/09/22 09:50:51;;;;;;;3.88;2.60;;;16.20;99.90;;;;;;4979128;28;20436;-72
2023/09/22 09:53:42;;;;;;;5.53;2.55;;;16.10;99.90;;;;;;5013135;28;20409;-72
2023/09/22 09:56:11;;;;;;;5.70;2.67;;;16.10;99.90;;;;;;5006863;28;20513;-72
2023/09/22 09:58:38;;;;;;;4.07;2.30;;;16.40;99.90;;;;;;5000261;28;20408;-72
2023/09/22 10:01:05;;;;;;;5.00;2.30;;;16.70;99.90;;;;;;4996543;28;20551;-72
2023/09/22 10:03:33;;;;;;;6.28;2.53;;;16.60;99.90;;;;;;4985395;28;20409;-71
2023/09/22 10:06:03;;;;;;;4.70;2.60;;;16.70;99.90;;;;;;5012649;28;20496;-72
2023/09/22 10:08:29;;;;;;;4.00;2.30;;;16.20;99.90;;;;;;5010417;28;20494;-71
2023/09/22 10:10:59;;;;;;;4.22;1.88;;;16.40;99.90;;;;;;4983066;28;20963;-72
2023/09/22 10:13:26;;;;;;;4.18;1.98;;;16.30;99.90;;;;;;5000131;28;20413;-72
2023/09/22 10:16:06;;;;;;;3.72;1.77;;;16.40;99.90;;;;;;4996808;28;20418;-71
2023/09/22 10:18:48;;;;;;;3.65;1.95;;;16.20;99.90;;;;;;4982233;28;20410;-71
2023/09/22 10:21:29;;;;;;;3.75;2.10;;;16.20;99.90;;;;;;4982970;28;20409;-72
2023/09/22 10:24:18;;;;;;;5.60;2.03;;;16.30;99.90;;;;;;4995110;28;20774;-72
2023/09/22 10:26:56;;;;;;;4.97;2.05;;;16.30;99.90;;;;;;5004253;28;20432;-71
2023/09/22 10:29:34;;;;;;;4.28;2.33;;;16.40;99.90;;;;;;4998546;28;20415;-71
2023/09/22 10:32:23;;;;;;;4.00;2.00;;;16.60;99.90;;;;;;4980650;28;20474;-72
2023/09/22 10:35:09;;;;;;;4.70;2.40;;;16.80;99.90;;;;;;4995874;28;20451;-72
2023/09/22 10:37:38;;;;;;;3.78;2.25;;;16.40;99.90;;;;;;4980032;28;20938;-71
2023/09/22 10:40:08;;;;;;;4.00;2.40;;;16.60;99.90;;;;;;5006367;28;20910;-71
2023/09/22 10:42:40;;;;;;;3.67;2.30;;;16.50;99.90;;;;;;4978439;28;20414;-71
2023/09/22 10:45:07;;;;;;;3.53;2.35;;;16.60;99.90;;;;;;4994159;28;20418;-71
2023/09/22 10:47:37;;;;;;;5.40;2.30;;;16.70;99.90;;;;;;5020330;28;20453;-71
2023/09/22 10:50:17;;;;;;;3.75;2.40;;;16.90;99.90;;;;;;4992423;28;20420;-71
2023/09/22 10:53:09;;;;;;;3.90;2.30;;;17.00;99.90;;;;;;4983150;28;20412;-71
2023/09/22 10:55:39;;;;;;;4.40;2.58;;;16.80;99.90;;;;;;4990149;28;20903;-71
2023/09/22 10:58:16;;;;;;;5.32;2.42;;;17.10;99.90;;;;;;4995671;28;20437;-71
2023/09/22 11:00:58;;;;;;;3.47;2.10;;;17.20;99.90;;;;;;4997592;28;20908;-71
2023/09/22 11:03:24;;;;;;;4.68;2.70;;;17.40;99.90;;;;;;4990758;28;20484;-71
2023/09/22 11:05:58;;;;;;;3.20;2.10;;;17.20;99.90;;;;;;4995432;28;20414;-72
2023/09/22 11:08:24;;;;;;;3.95;2.40;;;17.20;99.90;;;;;;4993962;28;22695;-72
2023/09/22 11:10:59;;;;;;;3.90;2.60;;;17.30;99.90;;;;;;4989793;28;20409;-71
2023/09/22 11:13:26;;;;;;;3.15;2.20;;;17.10;99.90;;;;;;4996602;28;20428;-71
2023/09/22 11:15:57;;;;;;;5.05;2.42;;;17.10;99.90;;;;;;5006809;28;20413;-72
2023/09/22 11:18:34;;;;;;;5.22;2.28;;;16.90;99.90;;;;;;4991412;28;20423;-72
2023/09/22 11:21:04;;;;;;;5.28;2.60;;;17.10;99.90;;;;;;5000146;28;20419;-71
2023/09/22 11:23:31;;;;;;;3.55;2.30;;;17.20;99.90;;;;;;4997311;28;20429;-72
2023/09/22 11:26:08;;;;;;;4.13;2.50;;;17.00;99.90;;;;;;5003658;28;20452;-71
2023/09/22 11:28:35;;;;;;;4.18;2.40;;;17.30;99.90;;;;;;5015083;28;20407;-72
2023/09/22 11:31:20;;;;;;;3.83;2.10;;;17.20;99.90;;;;;;4981076;28;20946;-72
2023/09/22 11:33:59;;;;;;;3.97;2.05;;;17.20;99.90;;;;;;4996163;28;20406;-71
2023/09/22 11:36:24;;;;;;;3.53;2.00;;;17.40;99.90;;;;;;4987651;28;20430;-72
2023/09/22 11:38:54;;;;;;;3.20;1.92;;;17.60;99.90;;;;;;4989002;28;20426;-72
2023/09/22 11:41:22;;;;;;;4.82;2.00;;;17.50;99.90;;;;;;5019111;28;20401;-72
2023/09/22 11:43:49;;;;;;;3.17;1.85;;;17.30;99.90;;;;;;5000672;28;20427;-72
2023/09/22 11:46:17;;;;;;;4.03;2.30;;;17.20;99.90;;;;;;4999961;28;20452;-72
2023/09/22 11:48:56;;;;;;;3.97;2.20;;;17.30;99.90;;;;;;5034547;28;20414;-71
2023/09/22 11:51:22;;;;;;;5.53;2.42;;;17.20;99.90;;;;;;4987562;28;20918;-71
2023/09/22 11:53:48;;;;;;;4.40;2.20;;;17.40;99.90;;;;;;4979311;28;20414;-71
2023/09/22 11:56:14;;;;;;;4.15;2.42;;;17.30;99.90;;;;;;5051037;28;20440;-71
2023/09/22 11:58:40;;;;;;;5.35;2.20;;;17.10;99.90;;;;;;5005244;28;20440;-71
2023/09/22 12:01:09;;;;;;;4.32;2.30;;;17.40;99.90;;;;;;4983155;28;20480;-71
2023/09/22 12:03:35;;;;;;;3.38;2.20;;;17.20;99.90;;;;;;4997737;28;20499;-71
2023/09/22 12:06:02;;;;;;;2.83;2.00;;;17.10;99.90;;;;;;4985800;28;20509;-71
2023/09/22 12:08:29;;;;;;;3.13;1.95;;;17.30;99.90;;;;;;4994048;28;20410;-71
2023/09/22 12:10:55;;;;;;;5.30;2.20;;;17.30;99.90;;;;;;4968686;28;20926;-71
2023/09/22 12:13:20;;;;;;;3.07;2.00;;;17.40;99.90;;;;;;4991722;28;20423;-71
2023/09/22 12:15:46;;;;;;;3.15;2.20;;;17.20;99.90;;;;;;5027062;28;20936;-72
2023/09/22 12:18:12;;;;;;;3.55;1.80;;;17.20;99.90;;;;;;5004741;28;20434;-72
2023/09/22 12:20:37;;;;;;;3.43;1.90;;;17.30;99.90;;;;;;4993306;28;20414;-71
2023/09/22 12:23:03;;;;;;;4.00;2.08;;;17.40;99.90;;;;;;4984298;28;20557;-72
2023/09/22 12:25:29;;;;;;;3.40;1.98;;;17.30;99.90;;;;;;4991715;28;20926;-71
2023/09/22 12:27:54;;;;;;;2.87;2.00;;;17.40;99.90;;;;;;4990458;28;20412;-71
2023/09/22 12:30:20;;;;;;;4.43;1.80;;;17.50;99.90;;;;;;5024410;28;20784;-71
2023/09/22 12:32:46;;;;;;;3.78;1.95;;;17.20;99.90;;;;;;4980189;28;20564;-71
2023/09/22 12:35:12;;;;;;;4.93;2.08;;;17.50;99.90;;;;;;4966782;28;20516;-72
2023/09/22 12:37:38;;;;;;;3.47;1.97;;;17.40;99.90;;;;;;4999342;28;20984;-71
2023/09/22 12:40:04;;;;;;;3.10;1.90;;;17.50;99.90;;;;;;5065929;28;20404;-71
2023/09/22 12:42:33;;;;;;;4.18;2.20;;;17.40;99.90;;;;;;4998476;28;20445;-71